sensor_id;sensor_type;location;lat;lon;timestamp;P1;durP1;ratioP1;P2;durP2;ratioP2
10481;SDS011;5288;42.334;23.876;2024-01-16T00:01:46;15.47;;;9.90;;
10481;SDS011;5288;42.334;23.876;2024-01-16T00:04:13;11.23;;;7.73;;
10481;SDS011;5288;42.334;23.876;2024-01-16T00:06:42;9.97;;;8.03;;
10481;SDS011;5288;42.334;23.876;2024-01-16T00:09:09;12.00;;;8.00;;
10481;SDS011;5288;42.334;23.876;2024-01-16T00:11:39;11.77;;;8.53;;
10481;SDS011;5288;42.334;23.876;2024-01-16T00:14:06;11.30;;;8.60;;
10481;SDS011;5288;42.334;23.876;2024-01-16T00:16:33;13.60;;;9.13;;
10481;SDS011;5288;42.334;23.876;2024-01-16T00:19:00;12.10;;;8.57;;
10481;SDS011;5288;42.334;23.876;2024-01-16T00:21:27;11.33;;;8.93;;
10481;SDS011;5288;42.334;23.876;2024-01-16T00:23:55;12.80;;;7.90;;
10481;SDS011;5288;42.334;23.876;2024-01-16T00:26:23;10.90;;;8.30;;
10481;SDS011;5288;42.334;23.876;2024-01-16T00:28:50;11.47;;;8.40;;
10481;SDS011;5288;42.334;23.876;2024-01-16T00:31:17;9.90;;;6.50;;
10481;SDS011;5288;42.334;23.876;2024-01-16T00:33:45;12.83;;;6.80;;
10481;SDS011;5288;42.334;23.876;2024-01-16T00:36:12;15.43;;;9.73;;
10481;SDS011;5288;42.334;23.876;2024-01-16T00:38:40;11.60;;;8.60;;
10481;SDS011;5288;42.334;23.876;2024-01-16T00:41:08;11.07;;;7.27;;
10481;SDS011;5288;42.334;23.876;2024-01-16T00:43:35;12.57;;;8.23;;
10481;SDS011;5288;42.334;23.876;2024-01-16T00:46:02;11.20;;;7.67;;
10481;SDS011;5288;42.334;23.876;2024-01-16T00:48:29;11.97;;;7.97;;
10481;SDS011;5288;42.334;23.876;2024-01-16T00:50:56;9.77;;;7.27;;
10481;SDS011;5288;42.334;23.876;2024-01-16T00:53:23;12.97;;;6.67;;
10481;SDS011;5288;42.334;23.876;2024-01-16T00:55:50;11.43;;;6.53;;
10481;SDS011;5288;42.334;23.876;2024-01-16T00:58:18;11.83;;;7.47;;
10481;SDS011;5288;42.334;23.876;2024-01-16T01:00:45;11.27;;;8.43;;
10481;SDS011;5288;42.334;23.876;2024-01-16T01:03:12;10.63;;;7.43;;
10481;SDS011;5288;42.334;23.876;2024-01-16T01:05:40;9.73;;;6.47;;
10481;SDS011;5288;42.334;23.876;2024-01-16T01:08:07;8.03;;;6.57;;
10481;SDS011;5288;42.334;23.876;2024-01-16T01:10:34;12.13;;;8.27;;
10481;SDS011;5288;42.334;23.876;2024-01-16T01:13:01;11.47;;;8.47;;
10481;SDS011;5288;42.334;23.876;2024-01-16T01:15:29;13.97;;;9.67;;
10481;SDS011;5288;42.334;23.876;2024-01-16T01:17:56;12.73;;;9.07;;
10481;SDS011;5288;42.334;23.876;2024-01-16T01:20:23;18.57;;;12.63;;
10481;SDS011;5288;42.334;23.876;2024-01-16T01:22:51;43.10;;;22.83;;
10481;SDS011;5288;42.334;23.876;2024-01-16T01:25:17;16.97;;;10.93;;
10481;SDS011;5288;42.334;23.876;2024-01-16T01:27:45;23.87;;;14.83;;
10481;SDS011;5288;42.334;23.876;2024-01-16T01:30:12;21.40;;;14.13;;
10481;SDS011;5288;42.334;23.876;2024-01-16T01:32:41;13.80;;;9.53;;
10481;SDS011;5288;42.334;23.876;2024-01-16T01:35:09;44.13;;;22.87;;
10481;SDS011;5288;42.334;23.876;2024-01-16T01:37:36;138.33;;;63.23;;
10481;SDS011;5288;42.334;23.876;2024-01-16T01:40:04;115.87;;;53.20;;
10481;SDS011;5288;42.334;23.876;2024-01-16T01:42:31;15.67;;;8.97;;
10481;SDS011;5288;42.334;23.876;2024-01-16T01:44:58;12.30;;;8.60;;
10481;SDS011;5288;42.334;23.876;2024-01-16T01:47:25;12.67;;;6.80;;
10481;SDS011;5288;42.334;23.876;2024-01-16T01:49:53;8.47;;;6.43;;
10481;SDS011;5288;42.334;23.876;2024-01-16T01:52:21;12.27;;;8.17;;
10481;SDS011;5288;42.334;23.876;2024-01-16T01:54:48;14.23;;;8.50;;
10481;SDS011;5288;42.334;23.876;2024-01-16T01:57:18;10.33;;;6.33;;
10481;SDS011;5288;42.334;23.876;2024-01-16T01:59:45;6.57;;;5.07;;
10481;SDS011;5288;42.334;23.876;2024-01-16T02:02:12;7.57;;;5.43;;
10481;SDS011;5288;42.334;23.876;2024-01-16T02:04:39;11.37;;;8.93;;
10481;SDS011;5288;42.334;23.876;2024-01-16T02:07:08;9.27;;;5.33;;
10481;SDS011;5288;42.334;23.876;2024-01-16T02:09:36;8.77;;;5.77;;
10481;SDS011;5288;42.334;23.876;2024-01-16T02:12:04;11.60;;;8.70;;
10481;SDS011;5288;42.334;23.876;2024-01-16T02:14:32;9.10;;;6.70;;
10481;SDS011;5288;42.334;23.876;2024-01-16T02:16:59;9.47;;;7.17;;
10481;SDS011;5288;42.334;23.876;2024-01-16T02:19:26;15.67;;;12.00;;
10481;SDS011;5288;42.334;23.876;2024-01-16T02:21:54;10.53;;;8.07;;
10481;SDS011;5288;42.334;23.876;2024-01-16T02:24:27;10.10;;;7.17;;
10481;SDS011;5288;42.334;23.876;2024-01-16T02:26:54;14.27;;;10.07;;
10481;SDS011;5288;42.334;23.876;2024-01-16T02:29:21;8.00;;;6.67;;
10481;SDS011;5288;42.334;23.876;2024-01-16T02:31:48;15.30;;;10.37;;
10481;SDS011;5288;42.334;23.876;2024-01-16T02:34:15;12.57;;;8.50;;
10481;SDS011;5288;42.334;23.876;2024-01-16T02:36:42;16.07;;;8.70;;
10481;SDS011;5288;42.334;23.876;2024-01-16T02:39:09;13.30;;;9.93;;
10481;SDS011;5288;42.334;23.876;2024-01-16T02:41:38;22.60;;;15.73;;
10481;SDS011;5288;42.334;23.876;2024-01-16T02:44:05;19.00;;;13.03;;
10481;SDS011;5288;42.334;23.876;2024-01-16T02:46:32;19.03;;;13.43;;
10481;SDS011;5288;42.334;23.876;2024-01-16T02:48:59;28.77;;;16.37;;
10481;SDS011;5288;42.334;23.876;2024-01-16T02:51:26;14.77;;;9.73;;
10481;SDS011;5288;42.334;23.876;2024-01-16T02:53:53;18.70;;;13.73;;
10481;SDS011;5288;42.334;23.876;2024-01-16T02:56:20;18.40;;;11.67;;
10481;SDS011;5288;42.334;23.876;2024-01-16T02:58:48;21.00;;;15.10;;
10481;SDS011;5288;42.334;23.876;2024-01-16T03:01:15;24.00;;;15.93;;
10481;SDS011;5288;42.334;23.876;2024-01-16T03:03:43;21.83;;;15.40;;
10481;SDS011;5288;42.334;23.876;2024-01-16T03:06:10;19.43;;;14.40;;
10481;SDS011;5288;42.334;23.876;2024-01-16T03:08:47;13.83;;;9.97;;
10481;SDS011;5288;42.334;23.876;2024-01-16T03:11:14;13.63;;;11.10;;
10481;SDS011;5288;42.334;23.876;2024-01-16T03:13:41;13.63;;;10.50;;
10481;SDS011;5288;42.334;23.876;2024-01-16T03:16:10;14.30;;;10.10;;
10481;SDS011;5288;42.334;23.876;2024-01-16T03:18:37;14.00;;;10.37;;
10481;SDS011;5288;42.334;23.876;2024-01-16T03:21:05;18.33;;;11.83;;
10481;SDS011;5288;42.334;23.876;2024-01-16T03:23:32;15.60;;;12.83;;
10481;SDS011;5288;42.334;23.876;2024-01-16T03:25:59;20.07;;;14.37;;
10481;SDS011;5288;42.334;23.876;2024-01-16T03:28:28;20.33;;;15.33;;
10481;SDS011;5288;42.334;23.876;2024-01-16T03:30:56;18.70;;;13.17;;
10481;SDS011;5288;42.334;23.876;2024-01-16T03:33:24;16.77;;;12.60;;
10481;SDS011;5288;42.334;23.876;2024-01-16T03:35:51;18.40;;;12.40;;
10481;SDS011;5288;42.334;23.876;2024-01-16T03:38:18;25.20;;;17.30;;
10481;SDS011;5288;42.334;23.876;2024-01-16T03:40:45;21.27;;;15.17;;
10481;SDS011;5288;42.334;23.876;2024-01-16T03:43:13;17.30;;;13.90;;
10481;SDS011;5288;42.334;23.876;2024-01-16T03:45:40;17.30;;;13.93;;
10481;SDS011;5288;42.334;23.876;2024-01-16T03:48:07;16.90;;;13.07;;
10481;SDS011;5288;42.334;23.876;2024-01-16T03:50:36;20.03;;;14.33;;
10481;SDS011;5288;42.334;23.876;2024-01-16T03:53:03;20.00;;;12.57;;
10481;SDS011;5288;42.334;23.876;2024-01-16T03:55:30;22.13;;;16.00;;
10481;SDS011;5288;42.334;23.876;2024-01-16T03:57:57;20.73;;;15.27;;
10481;SDS011;5288;42.334;23.876;2024-01-16T04:00:24;19.93;;;14.47;;
10481;SDS011;5288;42.334;23.876;2024-01-16T04:02:51;19.90;;;14.17;;
10481;SDS011;5288;42.334;23.876;2024-01-16T04:05:19;19.23;;;14.47;;
10481;SDS011;5288;42.334;23.876;2024-01-16T04:07:47;22.83;;;15.83;;
10481;SDS011;5288;42.334;23.876;2024-01-16T04:10:14;20.20;;;14.53;;
10481;SDS011;5288;42.334;23.876;2024-01-16T04:12:41;37.03;;;26.83;;
10481;SDS011;5288;42.334;23.876;2024-01-16T04:15:09;28.10;;;21.00;;
10481;SDS011;5288;42.334;23.876;2024-01-16T04:17:36;20.03;;;15.80;;
10481;SDS011;5288;42.334;23.876;2024-01-16T04:20:04;14.00;;;10.53;;
10481;SDS011;5288;42.334;23.876;2024-01-16T04:22:33;12.83;;;8.57;;
10481;SDS011;5288;42.334;23.876;2024-01-16T04:25:02;12.23;;;10.30;;
10481;SDS011;5288;42.334;23.876;2024-01-16T04:27:30;16.73;;;13.77;;
10481;SDS011;5288;42.334;23.876;2024-01-16T04:29:57;16.10;;;12.53;;
10481;SDS011;5288;42.334;23.876;2024-01-16T04:32:24;18.23;;;14.27;;
10481;SDS011;5288;42.334;23.876;2024-01-16T04:34:52;16.07;;;12.07;;
10481;SDS011;5288;42.334;23.876;2024-01-16T04:37:19;18.53;;;13.83;;
10481;SDS011;5288;42.334;23.876;2024-01-16T04:39:46;19.40;;;13.00;;
10481;SDS011;5288;42.334;23.876;2024-01-16T04:42:15;19.53;;;14.97;;
10481;SDS011;5288;42.334;23.876;2024-01-16T04:44:43;17.07;;;14.50;;
10481;SDS011;5288;42.334;23.876;2024-01-16T04:47:11;17.83;;;14.00;;
10481;SDS011;5288;42.334;23.876;2024-01-16T04:49:39;18.83;;;14.37;;
10481;SDS011;5288;42.334;23.876;2024-01-16T04:52:08;18.60;;;13.43;;
10481;SDS011;5288;42.334;23.876;2024-01-16T04:54:35;19.07;;;12.97;;
10481;SDS011;5288;42.334;23.876;2024-01-16T04:57:02;15.77;;;10.70;;
10481;SDS011;5288;42.334;23.876;2024-01-16T04:59:31;6.53;;;5.90;;
10481;SDS011;5288;42.334;23.876;2024-01-16T05:01:58;6.43;;;5.60;;
10481;SDS011;5288;42.334;23.876;2024-01-16T05:04:26;14.93;;;9.87;;
10481;SDS011;5288;42.334;23.876;2024-01-16T05:06:53;13.40;;;9.10;;
10481;SDS011;5288;42.334;23.876;2024-01-16T05:09:20;24.63;;;15.33;;
10481;SDS011;5288;42.334;23.876;2024-01-16T05:11:48;30.10;;;18.53;;
10481;SDS011;5288;42.334;23.876;2024-01-16T05:14:15;21.07;;;13.50;;
10481;SDS011;5288;42.334;23.876;2024-01-16T05:16:44;17.17;;;12.47;;
10481;SDS011;5288;42.334;23.876;2024-01-16T05:19:11;18.27;;;11.47;;
10481;SDS011;5288;42.334;23.876;2024-01-16T05:21:40;17.17;;;10.67;;
10481;SDS011;5288;42.334;23.876;2024-01-16T05:24:07;22.73;;;15.97;;
10481;SDS011;5288;42.334;23.876;2024-01-16T05:26:34;145.47;;;76.03;;
10481;SDS011;5288;42.334;23.876;2024-01-16T05:29:02;27.27;;;17.20;;
10481;SDS011;5288;42.334;23.876;2024-01-16T05:31:29;40.57;;;25.37;;
10481;SDS011;5288;42.334;23.876;2024-01-16T05:33:58;95.00;;;55.57;;
10481;SDS011;5288;42.334;23.876;2024-01-16T05:36:26;53.07;;;35.20;;
10481;SDS011;5288;42.334;23.876;2024-01-16T05:38:53;34.60;;;22.47;;
10481;SDS011;5288;42.334;23.876;2024-01-16T05:41:20;36.47;;;23.23;;
10481;SDS011;5288;42.334;23.876;2024-01-16T05:43:48;38.17;;;26.47;;
10481;SDS011;5288;42.334;23.876;2024-01-16T05:46:15;36.60;;;24.73;;
10481;SDS011;5288;42.334;23.876;2024-01-16T05:48:42;18.67;;;13.80;;
10481;SDS011;5288;42.334;23.876;2024-01-16T05:51:11;21.10;;;14.23;;
10481;SDS011;5288;42.334;23.876;2024-01-16T05:53:38;24.90;;;16.87;;
10481;SDS011;5288;42.334;23.876;2024-01-16T05:56:05;25.10;;;17.00;;
10481;SDS011;5288;42.334;23.876;2024-01-16T05:58:33;21.17;;;15.80;;
10481;SDS011;5288;42.334;23.876;2024-01-16T06:01:04;26.30;;;19.50;;
10481;SDS011;5288;42.334;23.876;2024-01-16T06:03:31;24.67;;;17.47;;
10481;SDS011;5288;42.334;23.876;2024-01-16T06:05:58;36.90;;;27.50;;
10481;SDS011;5288;42.334;23.876;2024-01-16T06:08:27;21.60;;;15.83;;
10481;SDS011;5288;42.334;23.876;2024-01-16T06:10:55;20.77;;;15.10;;
10481;SDS011;5288;42.334;23.876;2024-01-16T06:13:22;15.17;;;11.57;;
10481;SDS011;5288;42.334;23.876;2024-01-16T06:15:49;15.20;;;10.83;;
10481;SDS011;5288;42.334;23.876;2024-01-16T06:18:16;6.43;;;5.37;;
10481;SDS011;5288;42.334;23.876;2024-01-16T06:20:43;12.40;;;10.30;;
10481;SDS011;5288;42.334;23.876;2024-01-16T06:23:11;9.60;;;6.80;;
10481;SDS011;5288;42.334;23.876;2024-01-16T06:25:39;2.70;;;2.13;;
10481;SDS011;5288;42.334;23.876;2024-01-16T06:28:06;2.83;;;1.90;;
10481;SDS011;5288;42.334;23.876;2024-01-16T06:30:34;5.50;;;3.93;;
10481;SDS011;5288;42.334;23.876;2024-01-16T06:33:01;17.50;;;10.20;;
10481;SDS011;5288;42.334;23.876;2024-01-16T06:35:28;17.50;;;10.33;;
10481;SDS011;5288;42.334;23.876;2024-01-16T06:37:56;5.57;;;4.43;;
10481;SDS011;5288;42.334;23.876;2024-01-16T06:40:23;24.23;;;18.73;;
10481;SDS011;5288;42.334;23.876;2024-01-16T06:42:52;50.27;;;29.70;;
10481;SDS011;5288;42.334;23.876;2024-01-16T06:45:19;18.07;;;12.23;;
10481;SDS011;5288;42.334;23.876;2024-01-16T06:47:46;4.47;;;3.53;;
10481;SDS011;5288;42.334;23.876;2024-01-16T06:50:14;1.40;;;1.23;;
10481;SDS011;5288;42.334;23.876;2024-01-16T06:52:41;7.30;;;3.43;;
10481;SDS011;5288;42.334;23.876;2024-01-16T06:55:08;15.03;;;9.80;;
10481;SDS011;5288;42.334;23.876;2024-01-16T06:57:35;11.30;;;7.40;;
10481;SDS011;5288;42.334;23.876;2024-01-16T07:00:04;4.23;;;3.03;;
10481;SDS011;5288;42.334;23.876;2024-01-16T07:02:32;4.97;;;4.47;;
10481;SDS011;5288;42.334;23.876;2024-01-16T07:05:00;7.10;;;6.07;;
10481;SDS011;5288;42.334;23.876;2024-01-16T07:07:27;5.83;;;4.87;;
10481;SDS011;5288;42.334;23.876;2024-01-16T07:09:55;4.43;;;3.67;;
10481;SDS011;5288;42.334;23.876;2024-01-16T07:12:23;5.83;;;5.03;;
10481;SDS011;5288;42.334;23.876;2024-01-16T07:14:50;2.80;;;2.53;;
10481;SDS011;5288;42.334;23.876;2024-01-16T07:17:19;2.40;;;2.20;;
10481;SDS011;5288;42.334;23.876;2024-01-16T07:19:46;2.03;;;1.80;;
10481;SDS011;5288;42.334;23.876;2024-01-16T07:22:13;3.10;;;2.80;;
10481;SDS011;5288;42.334;23.876;2024-01-16T07:24:41;2.43;;;2.10;;
10481;SDS011;5288;42.334;23.876;2024-01-16T07:27:08;2.43;;;1.70;;
10481;SDS011;5288;42.334;23.876;2024-01-16T07:29:35;2.27;;;2.07;;
10481;SDS011;5288;42.334;23.876;2024-01-16T07:32:02;4.40;;;3.67;;
10481;SDS011;5288;42.334;23.876;2024-01-16T07:34:31;3.70;;;3.17;;
10481;SDS011;5288;42.334;23.876;2024-01-16T07:36:59;6.40;;;2.80;;
10481;SDS011;5288;42.334;23.876;2024-01-16T07:39:26;1.40;;;1.30;;
10481;SDS011;5288;42.334;23.876;2024-01-16T07:41:53;2.63;;;1.90;;
10481;SDS011;5288;42.334;23.876;2024-01-16T07:44:20;1.60;;;1.50;;
10481;SDS011;5288;42.334;23.876;2024-01-16T07:46:48;2.03;;;1.77;;
10481;SDS011;5288;42.334;23.876;2024-01-16T07:49:15;5.90;;;3.17;;
10481;SDS011;5288;42.334;23.876;2024-01-16T07:51:44;2.13;;;1.90;;
10481;SDS011;5288;42.334;23.876;2024-01-16T07:54:11;2.20;;;1.70;;
10481;SDS011;5288;42.334;23.876;2024-01-16T07:56:39;3.30;;;2.90;;
10481;SDS011;5288;42.334;23.876;2024-01-16T07:59:06;3.00;;;2.20;;
10481;SDS011;5288;42.334;23.876;2024-01-16T08:01:33;1.63;;;1.30;;
10481;SDS011;5288;42.334;23.876;2024-01-16T08:04:00;3.20;;;2.70;;
10481;SDS011;5288;42.334;23.876;2024-01-16T08:06:28;1.87;;;1.60;;
10481;SDS011;5288;42.334;23.876;2024-01-16T08:08:56;1.50;;;1.40;;
10481;SDS011;5288;42.334;23.876;2024-01-16T08:11:23;1.70;;;1.20;;
10481;SDS011;5288;42.334;23.876;2024-01-16T08:13:51;1.97;;;1.60;;
10481;SDS011;5288;42.334;23.876;2024-01-16T08:16:18;1.87;;;1.40;;
10481;SDS011;5288;42.334;23.876;2024-01-16T08:18:46;3.87;;;3.40;;
10481;SDS011;5288;42.334;23.876;2024-01-16T08:21:13;3.77;;;3.07;;
10481;SDS011;5288;42.334;23.876;2024-01-16T08:23:40;19.90;;;14.70;;
10481;SDS011;5288;42.334;23.876;2024-01-16T08:26:09;16.73;;;11.97;;
10481;SDS011;5288;42.334;23.876;2024-01-16T08:28:37;24.10;;;17.70;;
10481;SDS011;5288;42.334;23.876;2024-01-16T08:31:04;5.97;;;4.37;;
10481;SDS011;5288;42.334;23.876;2024-01-16T08:33:31;6.07;;;4.43;;
10481;SDS011;5288;42.334;23.876;2024-01-16T08:35:58;10.80;;;6.33;;
10481;SDS011;5288;42.334;23.876;2024-01-16T08:38:26;34.73;;;29.57;;
10481;SDS011;5288;42.334;23.876;2024-01-16T08:40:53;5.90;;;3.63;;
10481;SDS011;5288;42.334;23.876;2024-01-16T08:43:21;5.97;;;5.37;;
10481;SDS011;5288;42.334;23.876;2024-01-16T08:45:49;3.90;;;3.50;;
10481;SDS011;5288;42.334;23.876;2024-01-16T08:48:16;2.63;;;2.43;;
10481;SDS011;5288;42.334;23.876;2024-01-16T08:50:43;11.70;;;2.07;;
10481;SDS011;5288;42.334;23.876;2024-01-16T08:53:10;13.83;;;2.60;;
10481;SDS011;5288;42.334;23.876;2024-01-16T08:55:38;4.57;;;1.70;;
10481;SDS011;5288;42.334;23.876;2024-01-16T08:58:05;3.47;;;1.60;;
10481;SDS011;5288;42.334;23.876;2024-01-16T09:00:33;9.67;;;3.90;;
10481;SDS011;5288;42.334;23.876;2024-01-16T09:03:00;5.50;;;1.77;;
10481;SDS011;5288;42.334;23.876;2024-01-16T09:05:30;7.97;;;4.70;;
10481;SDS011;5288;42.334;23.876;2024-01-16T09:08:00;2.40;;;2.20;;
10481;SDS011;5288;42.334;23.876;2024-01-16T09:10:27;1.53;;;1.30;;
10481;SDS011;5288;42.334;23.876;2024-01-16T09:12:55;4.23;;;2.10;;
10481;SDS011;5288;42.334;23.876;2024-01-16T09:15:22;4.30;;;2.00;;
10481;SDS011;5288;42.334;23.876;2024-01-16T09:17:50;7.50;;;1.90;;
10481;SDS011;5288;42.334;23.876;2024-01-16T09:20:17;13.43;;;2.40;;
10481;SDS011;5288;42.334;23.876;2024-01-16T09:22:44;3.03;;;1.20;;
10481;SDS011;5288;42.334;23.876;2024-01-16T09:25:12;1.47;;;1.00;;
10481;SDS011;5288;42.334;23.876;2024-01-16T09:27:39;2.77;;;1.90;;
10481;SDS011;5288;42.334;23.876;2024-01-16T09:30:07;3.07;;;2.50;;
10481;SDS011;5288;42.334;23.876;2024-01-16T09:32:34;2.87;;;2.03;;
10481;SDS011;5288;42.334;23.876;2024-01-16T09:35:04;2.00;;;1.20;;
10481;SDS011;5288;42.334;23.876;2024-01-16T09:37:34;4.97;;;1.43;;
10481;SDS011;5288;42.334;23.876;2024-01-16T09:40:01;8.17;;;5.20;;
10481;SDS011;5288;42.334;23.876;2024-01-16T09:42:30;2.43;;;1.83;;
10481;SDS011;5288;42.334;23.876;2024-01-16T09:44:57;2.57;;;1.50;;
10481;SDS011;5288;42.334;23.876;2024-01-16T09:47:27;4.47;;;2.27;;
10481;SDS011;5288;42.334;23.876;2024-01-16T09:49:56;1.50;;;1.37;;
10481;SDS011;5288;42.334;23.876;2024-01-16T09:52:27;5.37;;;1.27;;
10481;SDS011;5288;42.334;23.876;2024-01-16T09:54:54;2.63;;;1.33;;
10481;SDS011;5288;42.334;23.876;2024-01-16T09:57:23;5.43;;;3.00;;
10481;SDS011;5288;42.334;23.876;2024-01-16T09:59:52;2.53;;;1.50;;
10481;SDS011;5288;42.334;23.876;2024-01-16T10:02:20;2.93;;;2.10;;
10481;SDS011;5288;42.334;23.876;2024-01-16T10:04:47;5.97;;;2.50;;
10481;SDS011;5288;42.334;23.876;2024-01-16T10:07:14;3.87;;;1.97;;
10481;SDS011;5288;42.334;23.876;2024-01-16T10:09:44;2.87;;;1.60;;
10481;SDS011;5288;42.334;23.876;2024-01-16T10:12:12;7.23;;;1.70;;
10481;SDS011;5288;42.334;23.876;2024-01-16T10:14:40;4.17;;;3.13;;
10481;SDS011;5288;42.334;23.876;2024-01-16T10:17:11;1.33;;;1.23;;
10481;SDS011;5288;42.334;23.876;2024-01-16T10:19:47;2.27;;;1.87;;
10481;SDS011;5288;42.334;23.876;2024-01-16T10:22:19;3.23;;;1.53;;
10481;SDS011;5288;42.334;23.876;2024-01-16T10:24:48;4.67;;;1.20;;
10481;SDS011;5288;42.334;23.876;2024-01-16T10:27:15;2.63;;;1.70;;
10481;SDS011;5288;42.334;23.876;2024-01-16T10:29:49;2.80;;;1.70;;
10481;SDS011;5288;42.334;23.876;2024-01-16T10:32:28;5.33;;;1.60;;
10481;SDS011;5288;42.334;23.876;2024-01-16T10:35:05;2.20;;;1.50;;
10481;SDS011;5288;42.334;23.876;2024-01-16T10:37:43;5.47;;;1.40;;
10481;SDS011;5288;42.334;23.876;2024-01-16T10:40:15;2.33;;;0.93;;
10481;SDS011;5288;42.334;23.876;2024-01-16T10:42:43;5.87;;;2.40;;
10481;SDS011;5288;42.334;23.876;2024-01-16T10:45:16;14.23;;;1.97;;
10481;SDS011;5288;42.334;23.876;2024-01-16T10:47:45;3.87;;;1.50;;
10481;SDS011;5288;42.334;23.876;2024-01-16T10:50:12;2.07;;;1.40;;
10481;SDS011;5288;42.334;23.876;2024-01-16T10:52:41;3.20;;;2.20;;
10481;SDS011;5288;42.334;23.876;2024-01-16T10:55:18;42.67;;;5.77;;
10481;SDS011;5288;42.334;23.876;2024-01-16T10:57:48;5.97;;;2.20;;
10481;SDS011;5288;42.334;23.876;2024-01-16T11:00:17;4.37;;;2.67;;
10481;SDS011;5288;42.334;23.876;2024-01-16T11:02:49;6.17;;;2.60;;
10481;SDS011;5288;42.334;23.876;2024-01-16T11:05:18;3.03;;;2.23;;
10481;SDS011;5288;42.334;23.876;2024-01-16T11:07:47;7.00;;;3.00;;
10481;SDS011;5288;42.334;23.876;2024-01-16T11:10:18;3.33;;;1.37;;
10481;SDS011;5288;42.334;23.876;2024-01-16T11:12:46;1.43;;;1.00;;
10481;SDS011;5288;42.334;23.876;2024-01-16T11:15:16;2.57;;;1.10;;
10481;SDS011;5288;42.334;23.876;2024-01-16T11:17:44;3.30;;;1.67;;
10481;SDS011;5288;42.334;23.876;2024-01-16T11:20:11;4.43;;;1.67;;
10481;SDS011;5288;42.334;23.876;2024-01-16T11:22:42;5.33;;;2.57;;
10481;SDS011;5288;42.334;23.876;2024-01-16T11:25:11;1.17;;;1.00;;
10481;SDS011;5288;42.334;23.876;2024-01-16T11:27:41;2.03;;;1.83;;
10481;SDS011;5288;42.334;23.876;2024-01-16T11:30:09;2.97;;;1.00;;
10481;SDS011;5288;42.334;23.876;2024-01-16T11:32:38;5.97;;;2.93;;
10481;SDS011;5288;42.334;23.876;2024-01-16T11:35:07;5.70;;;1.93;;
10481;SDS011;5288;42.334;23.876;2024-01-16T11:37:35;1.20;;;1.00;;
10481;SDS011;5288;42.334;23.876;2024-01-16T11:43:00;7.20;;;3.60;;
10481;SDS011;5288;42.334;23.876;2024-01-16T11:46:03;6.57;;;2.07;;
10481;SDS011;5288;42.334;23.876;2024-01-16T11:48:32;11.00;;;6.57;;
10481;SDS011;5288;42.334;23.876;2024-01-16T11:51:00;3.20;;;2.27;;
10481;SDS011;5288;42.334;23.876;2024-01-16T11:53:47;3.73;;;2.60;;
10481;SDS011;5288;42.334;23.876;2024-01-16T11:56:28;2.73;;;1.50;;
10481;SDS011;5288;42.334;23.876;2024-01-16T11:59:18;7.53;;;6.53;;
10481;SDS011;5288;42.334;23.876;2024-01-16T12:02:10;1.80;;;1.43;;
10481;SDS011;5288;42.334;23.876;2024-01-16T12:04:42;14.27;;;12.97;;
10481;SDS011;5288;42.334;23.876;2024-01-16T12:07:18;1.00;;;0.90;;
10481;SDS011;5288;42.334;23.876;2024-01-16T12:09:45;1.47;;;1.00;;
10481;SDS011;5288;42.334;23.876;2024-01-16T12:12:12;7.73;;;2.10;;
10481;SDS011;5288;42.334;23.876;2024-01-16T12:14:51;3.53;;;1.50;;
10481;SDS011;5288;42.334;23.876;2024-01-16T12:17:19;3.40;;;1.10;;
10481;SDS011;5288;42.334;23.876;2024-01-16T12:19:47;1.53;;;1.43;;
10481;SDS011;5288;42.334;23.876;2024-01-16T12:22:15;0.90;;;0.90;;
10481;SDS011;5288;42.334;23.876;2024-01-16T12:24:43;3.83;;;2.40;;
10481;SDS011;5288;42.334;23.876;2024-01-16T12:27:11;6.80;;;2.50;;
10481;SDS011;5288;42.334;23.876;2024-01-16T12:29:39;6.83;;;5.07;;
10481;SDS011;5288;42.334;23.876;2024-01-16T12:32:08;5.60;;;1.60;;
10481;SDS011;5288;42.334;23.876;2024-01-16T12:34:43;5.13;;;1.30;;
10481;SDS011;5288;42.334;23.876;2024-01-16T12:37:11;1.07;;;0.97;;
10481;SDS011;5288;42.334;23.876;2024-01-16T12:39:39;19.30;;;6.90;;
10481;SDS011;5288;42.334;23.876;2024-01-16T12:42:07;12.87;;;3.00;;
10481;SDS011;5288;42.334;23.876;2024-01-16T12:44:36;3.40;;;1.90;;
10481;SDS011;5288;42.334;23.876;2024-01-16T12:47:04;1.70;;;1.10;;
10481;SDS011;5288;42.334;23.876;2024-01-16T12:49:32;3.50;;;2.27;;
10481;SDS011;5288;42.334;23.876;2024-01-16T12:52:19;1.83;;;1.10;;
10481;SDS011;5288;42.334;23.876;2024-01-16T12:54:47;2.27;;;1.60;;
10481;SDS011;5288;42.334;23.876;2024-01-16T12:57:18;4.93;;;2.70;;
10481;SDS011;5288;42.334;23.876;2024-01-16T12:59:46;7.87;;;2.37;;
10481;SDS011;5288;42.334;23.876;2024-01-16T13:02:20;2.50;;;1.97;;
10481;SDS011;5288;42.334;23.876;2024-01-16T13:04:49;1.67;;;1.50;;
10481;SDS011;5288;42.334;23.876;2024-01-16T13:07:24;8.93;;;2.30;;
10481;SDS011;5288;42.334;23.876;2024-01-16T13:10:05;3.37;;;1.77;;
10481;SDS011;5288;42.334;23.876;2024-01-16T13:12:33;2.27;;;1.87;;
10481;SDS011;5288;42.334;23.876;2024-01-16T13:15:01;11.43;;;7.10;;
10481;SDS011;5288;42.334;23.876;2024-01-16T13:17:31;4.40;;;1.73;;
10481;SDS011;5288;42.334;23.876;2024-01-16T13:20:00;1.47;;;1.30;;
10481;SDS011;5288;42.334;23.876;2024-01-16T13:22:28;3.33;;;1.60;;
10481;SDS011;5288;42.334;23.876;2024-01-16T13:24:55;2.43;;;1.30;;
10481;SDS011;5288;42.334;23.876;2024-01-16T13:27:23;2.50;;;1.70;;
10481;SDS011;5288;42.334;23.876;2024-01-16T13:29:51;3.63;;;1.30;;
10481;SDS011;5288;42.334;23.876;2024-01-16T13:32:19;2.20;;;1.33;;
10481;SDS011;5288;42.334;23.876;2024-01-16T13:34:46;5.00;;;2.80;;
10481;SDS011;5288;42.334;23.876;2024-01-16T13:37:18;5.37;;;4.00;;
10481;SDS011;5288;42.334;23.876;2024-01-16T13:39:47;2.73;;;2.43;;
10481;SDS011;5288;42.334;23.876;2024-01-16T13:42:14;2.97;;;2.60;;
10481;SDS011;5288;42.334;23.876;2024-01-16T13:44:44;4.60;;;3.60;;
10481;SDS011;5288;42.334;23.876;2024-01-16T13:47:14;4.23;;;2.23;;
10481;SDS011;5288;42.334;23.876;2024-01-16T13:49:44;4.07;;;1.97;;
10481;SDS011;5288;42.334;23.876;2024-01-16T13:52:11;4.47;;;3.57;;
10481;SDS011;5288;42.334;23.876;2024-01-16T13:54:40;1.83;;;1.40;;
10481;SDS011;5288;42.334;23.876;2024-01-16T13:57:07;2.73;;;1.90;;
10481;SDS011;5288;42.334;23.876;2024-01-16T13:59:34;12.67;;;8.50;;
10481;SDS011;5288;42.334;23.876;2024-01-16T14:02:01;5.53;;;4.13;;
10481;SDS011;5288;42.334;23.876;2024-01-16T14:04:29;18.60;;;6.70;;
10481;SDS011;5288;42.334;23.876;2024-01-16T14:06:56;20.47;;;8.17;;
10481;SDS011;5288;42.334;23.876;2024-01-16T14:09:23;31.43;;;10.00;;
10481;SDS011;5288;42.334;23.876;2024-01-16T14:11:52;12.77;;;5.10;;
10481;SDS011;5288;42.334;23.876;2024-01-16T14:14:19;16.70;;;8.73;;
10481;SDS011;5288;42.334;23.876;2024-01-16T14:16:46;11.40;;;6.83;;
10481;SDS011;5288;42.334;23.876;2024-01-16T14:19:14;12.57;;;6.27;;
10481;SDS011;5288;42.334;23.876;2024-01-16T14:21:43;11.40;;;6.93;;
10481;SDS011;5288;42.334;23.876;2024-01-16T14:24:10;13.33;;;6.60;;
10481;SDS011;5288;42.334;23.876;2024-01-16T14:26:37;18.30;;;7.30;;
10481;SDS011;5288;42.334;23.876;2024-01-16T14:29:06;8.93;;;6.27;;
10481;SDS011;5288;42.334;23.876;2024-01-16T14:31:34;13.10;;;9.33;;
10481;SDS011;5288;42.334;23.876;2024-01-16T14:34:01;20.87;;;11.00;;
10481;SDS011;5288;42.334;23.876;2024-01-16T14:36:28;21.97;;;15.77;;
10481;SDS011;5288;42.334;23.876;2024-01-16T14:38:56;25.57;;;13.67;;
10481;SDS011;5288;42.334;23.876;2024-01-16T14:41:23;24.93;;;13.60;;
10481;SDS011;5288;42.334;23.876;2024-01-16T14:43:50;13.83;;;9.73;;
10481;SDS011;5288;42.334;23.876;2024-01-16T14:46:19;29.00;;;12.67;;